Mallacoota, Victoria

11:49 PM AEDT on March 31, 2015 (GMT +1100)
Main Wharf, Mallacoota, Vic, Australia | | Change Station
CLOSE
Current Station
Personal Weather Station
Location: Mallacoota, VICTORIA
Elevation: 29 ft
Nearby Weather Stations

Elev 29 ft 37.55 °S, 149.76 °E | Updated 3 seconds ago

Clear
Clear
65.6 °F
Feels Like 65.6 °F
N
3.0
Wind Variable Wind from NNE
Gusts 3.0 mph

Today
High -- | Low -- °F
--% Chance of Precip.
Yesterday
High -- | Low -- °F
Precip. -- in
7:13 AM 6:57 PM
Waxing Gibbous, 86% visible
Pressure 30.27 in
Visibility 6.2 miles
Clouds
Dew Point 62 °F
Humidity 89%
Rainfall 0.00 in
Snow Depth Not available.
UV Not available.
Pollen Not available.
Air Quality Not available.
Flu Activity Not available.
METAR YMER 311200Z AUTO 23001KT 9999 // NCD 16/14 Q1025

More Conditions Fewer Conditions

Pressure 30.27 in
Visibility 6.2 miles
Clouds
Dew Point 62 °F
Humidity 89%
Rainfall 0.00 in
Snow Depth Not available.
UV Not available.
Pollen Not available.
Air Quality Not available.
Flu Activity Not available.
METAR YMER 311200Z AUTO 23001KT 9999 // NCD 16/14 Q1025

More Conditions Fewer Conditions

10-Day Weather Forecast

Almanac

Astronomy

Mar. 31, 2015 Rise Set
Actual Time
Civil Twilight
Nautical Twilight
Astronomical Twilight
Moon
Length of Visible Light
Length of Day
Tomorrow will be .
, % of the Moon is Illuminated

Today's Extremes

Country Highs Country Lows

Community

WunderPhotos

Upload Photos

1,809,754 photos uploaded!

WunderBlogs® & News

Nearby

Air Quality

  Air Quality AQ Index Pollutant
Not available.

Snow Depth

Station Depth Elevation

Earthquake Activity

City Distance Mag. Time & Date
Minimum magnitude displayed is 2.5.

Coastal Water Temperatures

Place Temperature

Stations

Nearby Weather Stations

Station Location Temp. Windchill Dew Point Humidity Wind Precip. Elev Updated Type